EGTEEGPE

Guest
Details From EGTE - Exeter
To EGPE - Inverness
Flight Number -
Tags Generated
Created
Modified
Stats Distance 409 nm / 758 km
Max Altitude 0 ft / 0 m
Waypoints 3
Social Downloads 2
Likes 0
Share VATSIM

Download

Looking for another format? Having issues loading an existing format? Contact us
Advertisement - Login to hide

Notes

Generated

Route

EGTE DAVOT EGPE

ID Type Via Altitude Latitude Longitude Leg Dist Tot Dist Heading (true) Name
O EGTE APT - 0 ft / 0 m 50.73851˚ -3.42704˚ - 0 nm - -
DAVOT FIX - 0 ft / 0 m 57.34500˚ -4.09111˚ 397 nm 397 nm 357° / 356° -
O EGPE APT - 0 ft / 0 m 57.54464˚ -4.05987˚ 12 nm 409 nm 5° / 5° -

Altitude Profile

Advertisement - Login to hide

Weather


0- 5 10 15 20 25 30 35+ Temperature / ° C

Clouds and Precipitation
Forecast for 2017-12-14 06:00 UTC. Updated an hour ago

Ground ~20,000 ft ~40,000 ft Winds

EGTE

Details ICAO EGTE (EXT)
Name Exeter
Region United Kingdom
Timezone Europe/London (UTC+0.0)
Stats Elevation 102 ft / 31 m (AMSL)
Location 50.734260° -3.414000°
Runways 1
Magnetic Variation 1.514° W

METAR

EGTE 140220Z 25013KT 9999 -SHRA FEW012 SCT025 05/02 Q0997

Decode

TAF

Not found

Departure Runways

ID Width Length Bearing (true) Bearing (mag) Surface Threshold Offset Overrun Length
08 151 ft / 46 m 6,666 ft / 2,032 m 76.09° 77.60° Asphalt 0 ft / 0 m 0 ft / 0 m
26 151 ft / 46 m 6,666 ft / 2,032 m 256.11° 257.62° Asphalt 0 ft / 0 m 0 ft / 0 m

EGPE

Details ICAO EGPE (INV)
Name Inverness
Region United Kingdom
Timezone Europe/London (UTC+0.0)
Stats Elevation 31 ft / 9 m (AMSL)
Location 57.543039° -4.050944°
Runways 2
Magnetic Variation 2.881° W

METAR

EGPE 140220Z AUTO 23010KT 9999 NCD 01/00 Q0979

Decode

TAF

Not found

Destination Runways

ID Width Length Bearing (true) Bearing (mag) Surface Threshold Offset Overrun Length
05 151 ft / 46 m 6,179 ft / 1,883 m 49.39° 52.27° Asphalt 220 ft / 67 m 0 ft / 0 m
12 59 ft / 18 m 2,299 ft / 701 m 109.63° 112.51° Asphalt 0 ft / 0 m 0 ft / 0 m
23 151 ft / 46 m 6,179 ft / 1,883 m 229.41° 232.29° Asphalt 0 ft / 0 m 0 ft / 0 m
30 59 ft / 18 m 2,299 ft / 701 m 289.64° 292.52° Asphalt 0 ft / 0 m 0 ft / 0 m

Approach Navaids

Runway Type Ident Frequency Range Bearing (true) Bearing (mag) Slope Elevation
05 Localiser ILN 108.50 MHz 18 nm / 33 km 49.42° 52.30° - 31 ft / 9 m (AMSL)
05 Glidescope ILN 108.50 MHz 10 nm / 19 km 49.40° 52.29° 3.00° 31 ft / 9 m (AMSL)
05 DME ILN 108.50 MHz 18 nm / 33 km - - - 43 ft / 13 m (AMSL)
23 Localiser IDX 108.50 MHz 18 nm / 33 km 229.39° 232.27° - 31 ft / 9 m (AMSL)
23 Glidescope IDX 108.50 MHz 10 nm / 19 km 229.40° 232.29° 3.00° 31 ft / 9 m (AMSL)
23 DME IDX 108.50 MHz 18 nm / 33 km - - - 43 ft / 13 m (AMSL)